Terminal Aerodrome Forecast
Issued by NWS Cleveland, OH

Home | Current Version | Previous Version | Graphics & Text | Print | Product List | Glossary On
Versions: 1 2 3 4 5 6 7 8 9 10 11 12 13 14 15 16 17 18 19 20
971
FTUS41 KCLE 121737
TAFCAK
TAF
KCAK 121737Z 1218/1318 23015G25KT P6SM OVC060
      TEMPO 1221/1222 1 1/2SM -SHSN OVC025
     FM122200 25018G28KT 1 1/2SM -SHSN OVC025
      TEMPO 1222/1224 1/2SM SN BLSN OVC012
     FM130200 30015G25KT 3SM -SHSN OVC025
     FM130600 30012G22KT P6SM VCSH BKN025
     FM131200 30015G22KT 3SM -SHSN OVC025=

USA.gov is the U.S. government's official web portal to all federal, state and local government web resources and services.